Hayase Maru — JD2583 — position and weather

sailwx.info

Track history (hours):
 
Tides and Currents Weather Stations Pressure Air Temp Water Temp Dewpoint Dewpoint Depression Visibility Wind Speed Wind Dir Waves Ship Positions

Hayase Maru

Last reported at 2016-May-02 09:33 UTC. Time now 2016-May-05 04:42 UTC.
Position N 34°37' E 135°02'.

Length 73 m; draft 4 m.

Type: Ship. MMSI: 431000395.

Date/timePositionNaut miles runAvg speedWind from/ knotsBaromVisibWave heightAir tempDewpointWater temp
2016-May-02 09:33N 34°37' E 135°02'1212.1
2016-May-02 08:33N 34°34' E 135°16'7 7.0
2016-May-02 07:31N 34°31' E 135°24'0 0.0
2016-May-02 04:06N 34°31' E 135°24'4 7.2
2016-May-02 03:33N 34°35' E 135°23'4 3.6
2016-May-02 02:33N 34°35' E 135°27'0 0.0
2016-May-02 01:33N 34°35' E 135°27'0 0.0
2016-May-02 00:33N 34°35' E 135°27'0 0.0
2016-May-01 23:33N 34°35' E 135°27'4 3.6
2016-May-01 22:33N 34°35' E 135°23'0 0.0
2016-May-01 20:32N 34°35' E 135°23'0 0.1
2016-May-01 19:32N 34°35' E 135°23'0 0.0
2016-May-01 18:32N 34°35' E 135°23'0 0.0
2016-May-01 17:32N 34°35' E 135°23'0 0.0
2016-May-01 16:20N 34°35' E 135°23'0 0.0
2016-May-01 15:32N 34°35' E 135°23'8 8.2
2016-May-01 14:33N 34°35' E 135°13'1211.5
2016-May-01 13:32N 34°37' E 134°59'1111.3
2016-May-01 12:34N 34°41' E 134°46'1 0.0
2016-Apr-29 23:11N 34°41' E 134°46'8 9.4
2016-Apr-29 22:23N 34°38' E 134°54'7 9.1
2016-Apr-29 21:33N 34°36' E 135°03'9 9.4
2016-Apr-29 20:33N 34°27' E 135°03'1110.9
2016-Apr-29 19:31N 34°16' E 134°59'1111.3
2016-Apr-29 18:31N 34°05' E 135°01'  
2016-Apr-24 00:30N 34°55' E 140°01'1111.4
2016-Apr-23 23:34N 35°01' E 140°12'20 9.5
2016-Apr-23 21:31N 35°14' E 140°30'1010.3
2016-Apr-23 20:33N 35°22' E 140°37'1110.5
2016-Apr-23 19:33N 35°30' E 140°45'1010.3
2016-Apr-23 18:33N 35°39' E 140°53'1110.8
2016-Apr-23 17:32N 35°49' E 140°55'1211.4
2016-Apr-23 16:31N 36°01' E 140°53'  
Track history (hours):
 
Tides and Currents Weather Stations Pressure Air Temp Water Temp Dewpoint Dewpoint Depression Visibility Wind Speed Wind Dir Waves Ship Positions

Hayase Maru

Last reported at 2016-May-02 09:33 UTC. Time now 2016-May-05 04:42 UTC.
Position N 34°37' E 135°02'.

Length 73 m; draft 4 m.

Type: Ship. MMSI: 431000395.

Date/timePositionNaut miles runAvg speedWind from/ knotsBaromVisibWave heightAir tempDewpointWater temp
2016-May-02 09:33N 34°37' E 135°02'1212.1
2016-May-02 08:33N 34°34' E 135°16'7 7.0
2016-May-02 07:31N 34°31' E 135°24'0 0.0
2016-May-02 04:06N 34°31' E 135°24'4 7.2
2016-May-02 03:33N 34°35' E 135°23'4 3.6
2016-May-02 02:33N 34°35' E 135°27'0 0.0
2016-May-02 01:33N 34°35' E 135°27'0 0.0
2016-May-02 00:33N 34°35' E 135°27'0 0.0
2016-May-01 23:33N 34°35' E 135°27'4 3.6
2016-May-01 22:33N 34°35' E 135°23'0 0.0
2016-May-01 20:32N 34°35' E 135°23'0 0.1
2016-May-01 19:32N 34°35' E 135°23'0 0.0
2016-May-01 18:32N 34°35' E 135°23'0 0.0
2016-May-01 17:32N 34°35' E 135°23'0 0.0
2016-May-01 16:20N 34°35' E 135°23'0 0.0
2016-May-01 15:32N 34°35' E 135°23'8 8.2
2016-May-01 14:33N 34°35' E 135°13'1211.5
2016-May-01 13:32N 34°37' E 134°59'1111.3
2016-May-01 12:34N 34°41' E 134°46'1 0.0
2016-Apr-29 23:11N 34°41' E 134°46'8 9.4
2016-Apr-29 22:23N 34°38' E 134°54'7 9.1
2016-Apr-29 21:33N 34°36' E 135°03'9 9.4
2016-Apr-29 20:33N 34°27' E 135°03'1110.9
2016-Apr-29 19:31N 34°16' E 134°59'1111.3
2016-Apr-29 18:31N 34°05' E 135°01'  
2016-Apr-24 00:30N 34°55' E 140°01'1111.4
2016-Apr-23 23:34N 35°01' E 140°12'20 9.5
2016-Apr-23 21:31N 35°14' E 140°30'1010.3
2016-Apr-23 20:33N 35°22' E 140°37'1110.5
2016-Apr-23 19:33N 35°30' E 140°45'1010.3
2016-Apr-23 18:33N 35°39' E 140°53'1110.8
2016-Apr-23 17:32N 35°49' E 140°55'1211.4
2016-Apr-23 16:31N 36°01' E 140°53'  

Dump ship's entire track history